Time;durP1;ratioP1;P1;durP2;ratioP2;P2;SDS_P1;SDS_P2;PMS_P1;PMS_P2;Temp;Humidity;BMP_temperature;BMP_pressure;BME280_temperature;BME280_humidity;BME280_pressure;Samples;Min_cycle;Max_cycle;Signal;HPM_P1;HPM_P2
2021/03/02 00:02:16;;;;;;;131.97;59.83;;;;;;;;;;757884;184;630343;-69
2021/03/02 00:04:42;;;;;;;133.55;55.28;;;;;;;;;;761692;180;637702;-69
2021/03/02 00:07:08;;;;;;;117.33;54.67;;;;;;;;;;761675;180;624659;-69
2021/03/02 00:09:34;;;;;;;133.07;57.93;;;;;;;;;;762309;183;627798;-69
2021/03/02 00:12:00;;;;;;;158.20;67.07;;;;;;;;;;763048;182;623889;-69
2021/03/02 00:14:26;;;;;;;160.52;72.32;;;;;;;;;;760469;181;640311;-68
2021/03/02 00:16:55;;;;;;;145.73;63.13;;;;;;;;;;762545;182;618332;-69
2021/03/02 00:19:20;;;;;;;121.80;54.57;;;;;;;;;;760521;182;613683;-68
2021/03/02 00:21:48;;;;;;;118.70;55.73;;;;;;;;;;757376;181;636324;-69
2021/03/02 00:24:14;;;;;;;128.50;52.57;;;;;;;;;;766510;183;618590;-69
2021/03/02 00:26:40;;;;;;;133.63;56.83;;;;;;;;;;761013;183;628297;-68
2021/03/02 00:29:05;;;;;;;136.45;55.08;;;;;;;;;;758676;180;633708;-69
2021/03/02 00:31:32;;;;;;;133.67;57.67;;;;;;;;;;761091;182;629823;-69
2021/03/02 00:33:57;;;;;;;128.13;54.23;;;;;;;;;;769003;181;630607;-69
2021/03/02 00:36:23;;;;;;;115.13;48.67;;;;;;;;;;764121;179;623332;-69
2021/03/02 00:38:49;;;;;;;109.30;43.87;;;;;;;;;;760869;181;632228;-69
2021/03/02 00:41:15;;;;;;;84.03;38.23;;;;;;;;;;761762;183;617492;-69
2021/03/02 00:43:40;;;;;;;86.47;39.10;;;;;;;;;;750014;183;623343;-70
2021/03/02 00:46:06;;;;;;;100.47;40.57;;;;;;;;;;760561;183;623084;-68
2021/03/02 00:48:32;;;;;;;94.83;39.00;;;;;;;;;;755046;187;617560;-69
2021/03/02 00:50:58;;;;;;;90.27;40.80;;;;;;;;;;725632;194;624426;-69
2021/03/02 00:53:24;;;;;;;101.00;44.80;;;;;;;;;;758277;183;620325;-69
2021/03/02 00:55:50;;;;;;;90.93;41.53;;;;;;;;;;758773;183;624929;-69
2021/03/02 00:58:16;;;;;;;107.23;46.40;;;;;;;;;;769334;181;629882;-70
2021/03/02 01:00:41;;;;;;;98.53;44.87;;;;;;;;;;763377;183;628786;-69
2021/03/02 01:03:07;;;;;;;91.10;43.47;;;;;;;;;;764762;183;625996;-68
2021/03/02 01:05:33;;;;;;;100.63;45.67;;;;;;;;;;768143;184;614483;-69
2021/03/02 01:07:59;;;;;;;100.00;43.87;;;;;;;;;;767333;183;618413;-69
2021/03/02 01:10:25;;;;;;;89.53;41.87;;;;;;;;;;767847;183;631071;-70
2021/03/02 01:12:51;;;;;;;107.23;42.07;;;;;;;;;;768984;182;625622;-69
2021/03/02 01:15:16;;;;;;;97.67;42.87;;;;;;;;;;764166;183;620635;-69
2021/03/02 01:17:42;;;;;;;86.77;43.37;;;;;;;;;;764185;183;633686;-69
2021/03/02 01:20:08;;;;;;;107.97;43.87;;;;;;;;;;767310;183;620356;-69
2021/03/02 01:22:34;;;;;;;103.63;44.40;;;;;;;;;;764528;183;641262;-69
2021/03/02 01:25:00;;;;;;;109.28;47.10;;;;;;;;;;762930;183;631616;-69
2021/03/02 01:27:26;;;;;;;104.47;45.93;;;;;;;;;;764165;183;642696;-69
2021/03/02 01:29:52;;;;;;;105.80;45.40;;;;;;;;;;749669;187;629415;-69
2021/03/02 01:32:18;;;;;;;107.87;46.23;;;;;;;;;;747788;188;617058;-69
2021/03/02 01:34:43;;;;;;;107.67;41.50;;;;;;;;;;732101;188;696605;-68
2021/03/02 01:37:09;;;;;;;143.57;51.50;;;;;;;;;;765554;182;630112;-69
2021/03/02 01:39:35;;;;;;;163.97;54.90;;;;;;;;;;759181;181;628791;-68
2021/03/02 01:42:01;;;;;;;235.77;60.53;;;;;;;;;;760954;183;630620;-69
2021/03/02 01:44:27;;;;;;;236.40;58.37;;;;;;;;;;769124;181;628114;-69
2021/03/02 01:46:53;;;;;;;314.33;65.23;;;;;;;;;;757789;183;625502;-69
2021/03/02 01:49:19;;;;;;;216.13;60.20;;;;;;;;;;758000;179;625658;-69
2021/03/02 01:51:44;;;;;;;374.83;72.83;;;;;;;;;;770676;183;618683;-69
2021/03/02 01:54:10;;;;;;;255.53;57.93;;;;;;;;;;765363;183;628105;-70
2021/03/02 01:56:36;;;;;;;460.43;86.10;;;;;;;;;;766842;183;632296;-68
2021/03/02 01:59:02;;;;;;;322.10;64.40;;;;;;;;;;761898;183;632165;-69
2021/03/02 02:01:28;;;;;;;299.40;58.70;;;;;;;;;;760346;183;618721;-70
2021/03/02 02:03:54;;;;;;;392.70;62.97;;;;;;;;;;764588;183;632049;-69
2021/03/02 02:06:19;;;;;;;312.57;62.47;;;;;;;;;;765113;182;627712;-68
2021/03/02 02:09:00;;;;;;;348.17;64.40;;;;;;;;;;754630;187;627739;-68
2021/03/02 02:11:45;;;;;;;203.00;56.57;;;;;;;;;;723918;193;629886;-69
2021/03/02 02:14:11;;;;;;;189.67;51.73;;;;;;;;;;735981;191;712358;-69
2021/03/02 02:16:36;;;;;;;155.23;47.78;;;;;;;;;;740295;187;905408;-69
2021/03/02 02:19:02;;;;;;;244.90;58.43;;;;;;;;;;764755;183;617801;-69
2021/03/02 02:21:31;;;;;;;191.97;50.97;;;;;;;;;;750024;187;617548;-69
2021/03/02 02:24:02;;;;;;;175.47;52.63;;;;;;;;;;765979;183;623562;-69
2021/03/02 02:26:29;;;;;;;240.63;63.20;;;;;;;;;;764550;183;632789;-69
2021/03/02 02:28:55;;;;;;;147.33;57.50;;;;;;;;;;765417;183;628618;-69
2021/03/02 02:31:21;;;;;;;246.90;55.87;;;;;;;;;;749295;187;636407;-70
2021/03/02 02:33:46;;;;;;;190.00;57.07;;;;;;;;;;754216;185;632150;-68
2021/03/02 02:36:12;;;;;;;204.97;55.20;;;;;;;;;;763809;183;628101;-69
2021/03/02 02:38:39;;;;;;;233.57;55.30;;;;;;;;;;744903;187;624489;-69
2021/03/02 02:41:05;;;;;;;164.03;51.67;;;;;;;;;;725558;194;623075;-69
2021/03/02 02:43:31;;;;;;;242.40;59.07;;;;;;;;;;747427;184;623870;-68
2021/03/02 02:45:56;;;;;;;365.67;65.23;;;;;;;;;;757689;180;637682;-68
2021/03/02 02:48:22;;;;;;;287.93;67.30;;;;;;;;;;749971;184;623058;-69
2021/03/02 02:50:48;;;;;;;218.97;54.20;;;;;;;;;;753671;184;632461;-69
2021/03/02 02:53:14;;;;;;;219.20;57.70;;;;;;;;;;759425;180;627081;-69
2021/03/02 02:55:41;;;;;;;271.07;59.50;;;;;;;;;;769072;181;625975;-69
2021/03/02 02:58:07;;;;;;;298.27;55.90;;;;;;;;;;767985;183;617214;-70
2021/03/02 03:00:32;;;;;;;207.00;53.67;;;;;;;;;;761547;183;634055;-68
2021/03/02 03:02:58;;;;;;;323.73;55.40;;;;;;;;;;756656;187;633752;-69
2021/03/02 03:05:24;;;;;;;197.83;52.83;;;;;;;;;;758127;184;626145;-69
2021/03/02 03:07:52;;;;;;;212.93;47.50;;;;;;;;;;734915;189;641149;-69
2021/03/02 03:10:18;;;;;;;188.63;49.40;;;;;;;;;;739120;189;624725;-69
2021/03/02 03:12:43;;;;;;;231.77;54.13;;;;;;;;;;738010;188;630206;-70
2021/03/02 03:15:10;;;;;;;213.70;50.40;;;;;;;;;;748706;187;620162;-69
2021/03/02 03:17:38;;;;;;;250.27;50.53;;;;;;;;;;761781;182;622654;-69
2021/03/02 03:20:04;;;;;;;244.53;50.33;;;;;;;;;;763938;183;628160;-69
2021/03/02 03:22:30;;;;;;;198.67;48.90;;;;;;;;;;759308;180;628407;-69
2021/03/02 03:24:56;;;;;;;175.60;44.60;;;;;;;;;;761594;182;617894;-69
2021/03/02 03:27:22;;;;;;;213.13;48.47;;;;;;;;;;765562;180;646572;-69
2021/03/02 03:29:48;;;;;;;220.80;47.90;;;;;;;;;;761235;181;617639;-69
2021/03/02 03:32:14;;;;;;;241.90;50.53;;;;;;;;;;761146;180;635058;-69
2021/03/02 03:34:39;;;;;;;185.90;47.90;;;;;;;;;;763503;183;631236;-70
2021/03/02 03:37:05;;;;;;;221.57;53.10;;;;;;;;;;761187;182;631182;-69
2021/03/02 03:39:31;;;;;;;161.23;46.40;;;;;;;;;;760601;184;631506;-69
2021/03/02 03:41:57;;;;;;;200.90;48.47;;;;;;;;;;757440;180;633266;-69
2021/03/02 03:44:23;;;;;;;139.77;42.13;;;;;;;;;;759167;184;629506;-69
2021/03/02 03:46:49;;;;;;;242.07;54.87;;;;;;;;;;753565;183;627053;-69
2021/03/02 03:49:14;;;;;;;242.43;47.20;;;;;;;;;;760089;182;660565;-70
2021/03/02 03:51:40;;;;;;;189.67;48.20;;;;;;;;;;761641;183;620248;-69
2021/03/02 03:54:06;;;;;;;228.07;44.67;;;;;;;;;;764238;183;636554;-69
2021/03/02 03:56:32;;;;;;;191.03;49.37;;;;;;;;;;760976;180;618995;-69
2021/03/02 03:58:58;;;;;;;208.07;47.67;;;;;;;;;;751578;187;772552;-68
2021/03/02 04:01:24;;;;;;;138.93;45.27;;;;;;;;;;756943;185;628482;-69
2021/03/02 04:03:50;;;;;;;226.97;52.70;;;;;;;;;;738850;189;618669;-68
2021/03/02 04:06:15;;;;;;;160.57;44.47;;;;;;;;;;751053;186;641372;-69
2021/03/02 04:08:41;;;;;;;136.80;42.07;;;;;;;;;;747222;186;630379;-69
2021/03/02 04:11:07;;;;;;;178.07;45.53;;;;;;;;;;733582;187;620279;-69
2021/03/02 04:13:33;;;;;;;156.07;48.30;;;;;;;;;;761494;183;643499;-68
2021/03/02 04:15:59;;;;;;;229.00;48.37;;;;;;;;;;764416;183;647728;-69
2021/03/02 04:18:25;;;;;;;208.37;48.83;;;;;;;;;;763650;182;618973;-69
2021/03/02 04:20:50;;;;;;;212.90;50.90;;;;;;;;;;763931;183;622910;-67
2021/03/02 04:23:16;;;;;;;227.60;46.73;;;;;;;;;;762182;183;635797;-68
2021/03/02 04:25:42;;;;;;;181.30;50.27;;;;;;;;;;762798;180;618391;-69
2021/03/02 04:28:08;;;;;;;157.30;46.10;;;;;;;;;;760200;182;625682;-68
2021/03/02 04:30:34;;;;;;;223.07;47.60;;;;;;;;;;764880;183;612516;-69
2021/03/02 04:33:00;;;;;;;180.23;46.17;;;;;;;;;;758019;180;628775;-68
2021/03/02 04:35:26;;;;;;;276.20;55.27;;;;;;;;;;757832;183;784189;-68
2021/03/02 04:37:51;;;;;;;213.62;48.58;;;;;;;;;;763147;183;621125;-69
2021/03/02 04:40:18;;;;;;;292.20;50.53;;;;;;;;;;761162;183;623580;-69
2021/03/02 04:42:44;;;;;;;301.97;56.63;;;;;;;;;;765872;182;618097;-68
2021/03/02 04:45:10;;;;;;;259.10;56.03;;;;;;;;;;764151;183;619332;-69
2021/03/02 04:47:36;;;;;;;261.13;56.03;;;;;;;;;;765797;183;626562;-69
2021/03/02 04:50:02;;;;;;;241.87;50.77;;;;;;;;;;762058;183;624295;-69
2021/03/02 04:52:29;;;;;;;306.43;47.93;;;;;;;;;;766225;183;625989;-68
2021/03/02 04:54:54;;;;;;;194.87;43.17;;;;;;;;;;750673;187;627037;-68
2021/03/02 04:57:20;;;;;;;245.17;45.43;;;;;;;;;;762057;183;626407;-68
2021/03/02 04:59:47;;;;;;;186.60;43.67;;;;;;;;;;766753;183;618991;-68
2021/03/02 05:02:13;;;;;;;177.67;47.77;;;;;;;;;;761652;183;627442;-68
2021/03/02 05:04:38;;;;;;;168.87;44.40;;;;;;;;;;764923;183;629971;-68
2021/03/02 05:07:04;;;;;;;172.50;43.90;;;;;;;;;;760345;184;618811;-69
2021/03/02 05:09:30;;;;;;;164.83;41.47;;;;;;;;;;763402;183;623361;-71
2021/03/02 05:11:56;;;;;;;170.57;40.30;;;;;;;;;;763826;184;634135;-69
2021/03/02 05:14:22;;;;;;;151.80;40.87;;;;;;;;;;758524;183;776238;-69
2021/03/02 05:16:48;;;;;;;112.23;37.33;;;;;;;;;;766743;183;626262;-69
2021/03/02 05:19:14;;;;;;;214.33;44.67;;;;;;;;;;750839;187;636197;-68
2021/03/02 05:21:39;;;;;;;162.57;43.30;;;;;;;;;;735906;188;629074;-68
2021/03/02 05:24:05;;;;;;;184.97;38.70;;;;;;;;;;765314;183;639979;-69
2021/03/02 05:26:31;;;;;;;111.03;35.07;;;;;;;;;;757767;186;624849;-69
2021/03/02 05:28:57;;;;;;;119.80;34.17;;;;;;;;;;746753;187;617067;-69
2021/03/02 05:31:23;;;;;;;125.40;39.47;;;;;;;;;;735444;187;648633;-69
2021/03/02 05:33:49;;;;;;;163.70;38.90;;;;;;;;;;762965;183;653020;-69
2021/03/02 05:36:15;;;;;;;153.37;34.93;;;;;;;;;;753250;184;640929;-70
2021/03/02 05:38:40;;;;;;;116.10;32.20;;;;;;;;;;766083;184;629052;-68
2021/03/02 05:41:06;;;;;;;88.07;33.07;;;;;;;;;;760540;183;643160;-69
2021/03/02 05:43:32;;;;;;;125.77;27.53;;;;;;;;;;764977;183;616836;-69
2021/03/02 05:45:58;;;;;;;80.67;28.20;;;;;;;;;;764190;183;621332;-69
2021/03/02 05:48:24;;;;;;;78.37;27.73;;;;;;;;;;766176;181;627145;-68
2021/03/02 05:50:50;;;;;;;77.83;29.33;;;;;;;;;;764051;183;623538;-69
2021/03/02 05:53:15;;;;;;;108.03;32.60;;;;;;;;;;759950;183;625831;-68
2021/03/02 05:55:41;;;;;;;102.13;30.13;;;;;;;;;;762359;183;618759;-68
2021/03/02 05:58:07;;;;;;;154.27;32.93;;;;;;;;;;762674;183;638360;-68
2021/03/02 06:00:33;;;;;;;100.33;34.60;;;;;;;;;;764113;183;624465;-68
2021/03/02 06:02:59;;;;;;;72.90;29.07;;;;;;;;;;759408;183;631108;-68
2021/03/02 06:05:25;;;;;;;100.07;29.57;;;;;;;;;;764926;183;636663;-69
2021/03/02 06:07:51;;;;;;;93.90;28.70;;;;;;;;;;750667;187;809016;-69
2021/03/02 06:10:16;;;;;;;125.57;29.07;;;;;;;;;;744118;187;623359;-69
2021/03/02 06:12:48;;;;;;;88.10;26.30;;;;;;;;;;727399;191;629468;-69
2021/03/02 06:15:14;;;;;;;113.60;29.43;;;;;;;;;;741879;188;643209;-69
2021/03/02 06:17:40;;;;;;;124.13;32.87;;;;;;;;;;739915;189;623914;-69
2021/03/02 06:20:06;;;;;;;121.70;33.33;;;;;;;;;;731570;188;643921;-69
2021/03/02 06:22:34;;;;;;;155.90;31.80;;;;;;;;;;745688;186;646473;-69
2021/03/02 06:25:00;;;;;;;151.23;34.00;;;;;;;;;;743134;189;619854;-69
2021/03/02 06:27:25;;;;;;;157.00;34.80;;;;;;;;;;764983;183;624513;-69
2021/03/02 06:29:57;;;;;;;159.07;33.38;;;;;;;;;;760135;183;663585;-69
2021/03/02 06:32:23;;;;;;;169.37;31.57;;;;;;;;;;754837;186;635336;-69
2021/03/02 06:34:49;;;;;;;164.00;28.30;;;;;;;;;;750248;187;640031;-69
2021/03/02 06:37:15;;;;;;;159.30;32.17;;;;;;;;;;736277;190;623923;-69
2021/03/02 06:39:42;;;;;;;103.63;30.00;;;;;;;;;;747913;186;625600;-69
2021/03/02 06:42:11;;;;;;;215.77;37.03;;;;;;;;;;757984;185;616098;-69
2021/03/02 06:44:37;;;;;;;146.30;31.83;;;;;;;;;;755663;184;633726;-69
2021/03/02 06:47:03;;;;;;;177.90;40.27;;;;;;;;;;763734;183;636627;-69
2021/03/02 06:49:35;;;;;;;167.87;35.23;;;;;;;;;;753009;187;630390;-68
2021/03/02 06:52:01;;;;;;;203.90;28.80;;;;;;;;;;747896;186;630253;-68
2021/03/02 06:54:26;;;;;;;264.50;37.47;;;;;;;;;;732504;188;620939;-68
2021/03/02 06:56:58;;;;;;;190.43;38.95;;;;;;;;;;761083;183;628912;-69
2021/03/02 06:59:24;;;;;;;136.23;33.80;;;;;;;;;;766039;180;622807;-68
2021/03/02 07:01:50;;;;;;;193.67;34.23;;;;;;;;;;762289;182;621377;-68
2021/03/02 07:04:17;;;;;;;176.33;32.77;;;;;;;;;;757657;183;618661;-68
2021/03/02 07:06:43;;;;;;;141.50;28.80;;;;;;;;;;759047;184;631766;-69
2021/03/02 07:09:09;;;;;;;130.93;30.47;;;;;;;;;;762845;183;713806;-68
2021/03/02 07:11:35;;;;;;;118.27;27.50;;;;;;;;;;759237;183;642995;-70
2021/03/02 07:14:01;;;;;;;104.83;23.53;;;;;;;;;;762307;183;630649;-68
2021/03/02 07:16:26;;;;;;;138.20;26.73;;;;;;;;;;751912;184;627848;-68
2021/03/02 07:18:52;;;;;;;135.03;24.13;;;;;;;;;;752875;185;675767;-68
2021/03/02 07:21:18;;;;;;;151.03;27.73;;;;;;;;;;767388;183;622874;-68
2021/03/02 07:23:44;;;;;;;132.27;26.13;;;;;;;;;;753830;187;619239;-69
2021/03/02 07:26:10;;;;;;;106.47;23.47;;;;;;;;;;723678;194;625644;-70
2021/03/02 07:28:36;;;;;;;178.23;32.27;;;;;;;;;;734112;188;620135;-70
2021/03/02 07:31:01;;;;;;;85.17;21.00;;;;;;;;;;749822;187;619237;-70
2021/03/02 07:33:27;;;;;;;152.73;25.77;;;;;;;;;;744628;186;634807;-71
2021/03/02 07:35:55;;;;;;;139.63;28.93;;;;;;;;;;732643;191;618218;-71
2021/03/02 07:38:21;;;;;;;137.93;24.63;;;;;;;;;;737724;188;648612;-71
2021/03/02 07:40:47;;;;;;;257.10;32.00;;;;;;;;;;761393;181;2156348;-72
2021/03/02 07:43:19;;;;;;;178.90;25.10;;;;;;;;;;768201;182;679673;-73
2021/03/02 07:45:45;;;;;;;171.98;24.42;;;;;;;;;;767614;183;638766;-72
2021/03/02 07:48:11;;;;;;;169.53;25.33;;;;;;;;;;755806;187;622806;-72
2021/03/02 07:50:37;;;;;;;108.57;23.27;;;;;;;;;;724663;193;633473;-72
2021/03/02 07:53:08;;;;;;;119.30;21.33;;;;;;;;;;737468;190;666509;-72
2021/03/02 07:55:34;;;;;;;87.30;20.13;;;;;;;;;;749720;186;636647;-72
2021/03/02 07:58:06;;;;;;;105.57;19.40;;;;;;;;;;757107;186;618214;-71
2021/03/02 08:00:32;;;;;;;176.40;21.30;;;;;;;;;;759908;183;621620;-70
2021/03/02 08:03:04;;;;;;;250.13;28.10;;;;;;;;;;761623;183;633597;-70
2021/03/02 08:05:30;;;;;;;159.37;27.33;;;;;;;;;;746697;187;626620;-70
2021/03/02 08:08:01;;;;;;;119.53;23.70;;;;;;;;;;750011;187;617940;-69
2021/03/02 08:10:33;;;;;;;101.50;19.80;;;;;;;;;;748869;186;621957;-68
2021/03/02 08:12:59;;;;;;;259.87;27.07;;;;;;;;;;732669;188;654733;-69
2021/03/02 08:15:25;;;;;;;209.53;28.07;;;;;;;;;;736845;188;623790;-69
2021/03/02 08:17:51;;;;;;;166.67;28.07;;;;;;;;;;747350;187;1541599;-69
2021/03/02 08:20:17;;;;;;;181.47;28.00;;;;;;;;;;762813;182;614724;-69
2021/03/02 08:22:45;;;;;;;123.17;25.73;;;;;;;;;;757246;183;636764;-69
2021/03/02 08:25:17;;;;;;;216.53;32.27;;;;;;;;;;765175;183;627244;-69
2021/03/02 08:27:44;;;;;;;191.73;31.87;;;;;;;;;;760711;183;625924;-69
2021/03/02 08:30:10;;;;;;;276.20;38.27;;;;;;;;;;749890;183;626379;-69
2021/03/02 08:32:36;;;;;;;251.47;40.03;;;;;;;;;;761360;180;628875;-68
2021/03/02 08:35:01;;;;;;;169.83;29.40;;;;;;;;;;766644;183;617463;-68
2021/03/02 08:37:33;;;;;;;203.67;29.37;;;;;;;;;;762455;182;626031;-67
2021/03/02 08:39:59;;;;;;;163.90;28.83;;;;;;;;;;762311;182;629834;-69
2021/03/02 08:42:25;;;;;;;190.60;32.40;;;;;;;;;;762121;183;627380;-68
2021/03/02 08:44:51;;;;;;;148.07;25.37;;;;;;;;;;759978;183;623623;-68
2021/03/02 08:47:16;;;;;;;123.40;25.07;;;;;;;;;;760363;181;625052;-67
2021/03/02 08:49:43;;;;;;;192.07;29.47;;;;;;;;;;760140;183;633162;-67
2021/03/02 08:52:09;;;;;;;140.97;26.97;;;;;;;;;;756392;187;621739;-67
2021/03/02 08:54:35;;;;;;;94.77;17.20;;;;;;;;;;743751;188;627551;-66
2021/03/02 08:57:02;;;;;;;159.70;23.33;;;;;;;;;;760551;183;631128;-66
2021/03/02 08:59:28;;;;;;;166.10;27.50;;;;;;;;;;754067;187;631360;-66
2021/03/02 09:01:54;;;;;;;181.90;26.93;;;;;;;;;;756355;184;626554;-67
2021/03/02 09:04:20;;;;;;;208.57;32.27;;;;;;;;;;764620;183;629702;-65
2021/03/02 09:06:46;;;;;;;169.43;25.87;;;;;;;;;;761398;183;628796;-66
2021/03/02 09:09:13;;;;;;;227.47;32.80;;;;;;;;;;763134;183;628085;-65
2021/03/02 09:11:39;;;;;;;358.97;51.30;;;;;;;;;;764404;183;642294;-66
2021/03/02 09:14:05;;;;;;;109.30;21.80;;;;;;;;;;763792;183;631629;-66
2021/03/02 09:16:32;;;;;;;200.80;27.27;;;;;;;;;;752017;187;629936;-66
2021/03/02 09:19:13;;;;;;;130.63;23.87;;;;;;;;;;767048;183;620542;-66
2021/03/02 09:21:39;;;;;;;108.70;22.60;;;;;;;;;;765764;183;629694;-66
2021/03/02 09:24:05;;;;;;;76.33;19.40;;;;;;;;;;756720;183;633273;-66
2021/03/02 09:26:31;;;;;;;172.10;26.37;;;;;;;;;;768227;183;625857;-66
2021/03/02 09:28:57;;;;;;;133.80;23.80;;;;;;;;;;764631;183;623476;-66
2021/03/02 09:31:24;;;;;;;128.77;32.20;;;;;;;;;;765114;183;626657;-66
2021/03/02 09:33:49;;;;;;;152.53;29.40;;;;;;;;;;749586;187;609699;-66
2021/03/02 09:36:15;;;;;;;197.75;29.73;;;;;;;;;;747503;187;624809;-65
2021/03/02 09:38:41;;;;;;;225.53;33.77;;;;;;;;;;730009;190;634916;-65
2021/03/02 09:41:07;;;;;;;155.80;29.90;;;;;;;;;;728995;188;620551;-64
2021/03/02 09:43:35;;;;;;;97.07;24.27;;;;;;;;;;747323;183;626707;-65
2021/03/02 09:46:00;;;;;;;111.80;24.70;;;;;;;;;;748965;188;618616;-64
2021/03/02 09:48:26;;;;;;;204.43;29.43;;;;;;;;;;733114;191;624961;-64
2021/03/02 09:50:52;;;;;;;205.43;28.27;;;;;;;;;;753320;187;628172;-65
2021/03/02 09:53:18;;;;;;;144.70;28.27;;;;;;;;;;745981;184;640085;-65
2021/03/02 09:55:47;;;;;;;148.57;25.20;;;;;;;;;;746071;187;620048;-64
2021/03/02 09:58:15;;;;;;;162.97;27.90;;;;;;;;;;749815;183;633251;-64
2021/03/02 10:00:49;;;;;;;133.33;31.17;;;;;;;;;;752968;187;623115;-64
2021/03/02 10:03:15;;;;;;;99.47;29.33;;;;;;;;;;751169;187;623923;-65
2021/03/02 10:05:41;;;;;;;131.47;27.67;;;;;;;;;;748185;185;629779;-64
2021/03/02 10:08:13;;;;;;;154.90;31.08;;;;;;;;;;737182;189;623786;-64
2021/03/02 10:10:39;;;;;;;164.10;37.80;;;;;;;;;;771106;183;621177;-62
2021/03/02 10:13:05;;;;;;;155.67;32.43;;;;;;;;;;765584;180;706084;-64
2021/03/02 10:15:32;;;;;;;141.15;33.65;;;;;;;;;;761800;183;711948;-63
2021/03/02 10:17:56;;;;;;;109.23;27.17;;;;;;;;;;766896;183;626876;-65
2021/03/02 10:20:22;;;;;;;113.10;27.20;;;;;;;;;;768093;183;626263;-64
2021/03/02 10:22:48;;;;;;;107.83;28.20;;;;;;;;;;759900;183;623013;-65
2021/03/02 10:25:14;;;;;;;151.03;30.80;;;;;;;;;;745530;187;626298;-64
2021/03/02 10:27:42;;;;;;;154.43;34.27;;;;;;;;;;756371;184;637212;-64
2021/03/02 10:30:06;;;;;;;122.60;32.73;;;;;;;;;;731923;190;629177;-65
2021/03/02 10:32:32;;;;;;;113.87;26.53;;;;;;;;;;749127;186;617879;-63
2021/03/02 10:34:58;;;;;;;158.40;39.43;;;;;;;;;;744223;188;627079;-64
2021/03/02 10:37:24;;;;;;;136.57;29.33;;;;;;;;;;733674;187;629830;-64
2021/03/02 10:39:50;;;;;;;112.27;30.60;;;;;;;;;;736232;188;639320;-63
2021/03/02 10:42:18;;;;;;;99.70;28.87;;;;;;;;;;737048;187;617326;-62
2021/03/02 10:44:41;;;;;;;114.33;31.63;;;;;;;;;;761355;180;631410;-63
2021/03/02 10:47:07;;;;;;;129.47;32.00;;;;;;;;;;759126;183;625885;-63
2021/03/02 10:49:33;;;;;;;131.20;33.67;;;;;;;;;;762382;183;630684;-63
2021/03/02 10:51:59;;;;;;;137.47;34.30;;;;;;;;;;758182;183;621803;-63
2021/03/02 10:54:25;;;;;;;158.07;35.20;;;;;;;;;;758941;183;616428;-63
2021/03/02 10:56:51;;;;;;;111.87;32.83;;;;;;;;;;759772;183;614501;-62
2021/03/02 10:59:16;;;;;;;102.73;30.73;;;;;;;;;;759221;183;629691;-63
2021/03/02 11:01:42;;;;;;;142.93;36.40;;;;;;;;;;761066;180;621956;-63
2021/03/02 11:04:09;;;;;;;123.97;38.15;;;;;;;;;;762284;183;625537;-63
2021/03/02 11:06:34;;;;;;;153.07;41.27;;;;;;;;;;751323;183;629397;-63
2021/03/02 11:09:00;;;;;;;148.62;40.55;;;;;;;;;;752784;183;622801;-63
2021/03/02 11:11:26;;;;;;;109.30;36.03;;;;;;;;;;760617;183;625771;-63
2021/03/02 11:13:52;;;;;;;137.97;39.03;;;;;;;;;;766787;183;614631;-63
2021/03/02 11:16:18;;;;;;;155.40;42.23;;;;;;;;;;764224;182;628097;-63
2021/03/02 11:18:44;;;;;;;160.20;43.17;;;;;;;;;;760818;182;628692;-64
2021/03/02 11:21:11;;;;;;;159.85;47.95;;;;;;;;;;765974;179;624213;-63
2021/03/02 11:23:36;;;;;;;136.73;42.17;;;;;;;;;;762743;183;811997;-64
2021/03/02 11:26:01;;;;;;;163.13;47.27;;;;;;;;;;760331;183;634520;-63
2021/03/02 11:28:27;;;;;;;123.70;35.77;;;;;;;;;;766162;183;619668;-64
2021/03/02 11:30:53;;;;;;;167.90;44.17;;;;;;;;;;762515;183;630167;-63
2021/03/02 11:33:19;;;;;;;153.87;44.60;;;;;;;;;;763606;180;634212;-63
2021/03/02 11:35:45;;;;;;;165.40;46.80;;;;;;;;;;763234;183;632026;-63
2021/03/02 11:38:11;;;;;;;163.17;45.23;;;;;;;;;;758298;185;630471;-63
2021/03/02 11:40:37;;;;;;;223.13;57.20;;;;;;;;;;765545;183;638520;-63
2021/03/02 11:43:02;;;;;;;232.13;56.33;;;;;;;;;;762833;183;619014;-63
2021/03/02 11:45:28;;;;;;;201.87;51.27;;;;;;;;;;747668;187;616966;-63
2021/03/02 11:47:54;;;;;;;231.90;61.63;;;;;;;;;;749896;185;633825;-63
2021/03/02 11:50:20;;;;;;;236.47;60.40;;;;;;;;;;752578;185;628305;-63
2021/03/02 11:52:46;;;;;;;218.00;56.67;;;;;;;;;;754721;187;619016;-64
2021/03/02 11:55:12;;;;;;;259.57;60.23;;;;;;;;;;725450;194;627683;-63
2021/03/02 11:57:38;;;;;;;271.60;65.90;;;;;;;;;;752316;184;622943;-63
2021/03/02 12:00:04;;;;;;;248.43;68.43;;;;;;;;;;763019;184;959066;-64
2021/03/02 12:02:30;;;;;;;252.13;66.73;;;;;;;;;;755566;183;618644;-63
2021/03/02 12:04:56;;;;;;;239.67;62.10;;;;;;;;;;761330;180;626140;-63
2021/03/02 12:07:22;;;;;;;206.33;50.27;;;;;;;;;;759391;183;625914;-63
2021/03/02 12:09:48;;;;;;;164.13;48.77;;;;;;;;;;766022;182;626540;-63
2021/03/02 12:12:14;;;;;;;197.07;62.77;;;;;;;;;;762771;182;619001;-64
2021/03/02 12:14:39;;;;;;;229.20;61.03;;;;;;;;;;759836;183;625013;-64
2021/03/02 12:17:05;;;;;;;190.77;56.23;;;;;;;;;;763135;183;627780;-63
2021/03/02 12:19:31;;;;;;;204.00;60.17;;;;;;;;;;763189;183;620990;-64
2021/03/02 12:21:57;;;;;;;177.33;55.17;;;;;;;;;;761826;180;629317;-63
2021/03/02 12:24:23;;;;;;;121.43;43.30;;;;;;;;;;765383;183;631016;-64
2021/03/02 12:26:49;;;;;;;109.77;39.90;;;;;;;;;;762352;181;630104;-63
2021/03/02 12:29:15;;;;;;;107.90;38.83;;;;;;;;;;761613;180;629408;-64
2021/03/02 12:31:40;;;;;;;109.07;42.77;;;;;;;;;;763264;180;620665;-63
2021/03/02 12:34:06;;;;;;;91.53;35.10;;;;;;;;;;760648;183;635462;-63
2021/03/02 12:36:32;;;;;;;93.80;38.07;;;;;;;;;;760316;180;627179;-63
2021/03/02 12:38:58;;;;;;;72.27;32.10;;;;;;;;;;760767;180;635015;-63
2021/03/02 12:41:24;;;;;;;79.27;35.73;;;;;;;;;;762768;180;615956;-64
2021/03/02 12:43:50;;;;;;;74.80;32.70;;;;;;;;;;764140;180;628715;-63
2021/03/02 12:46:15;;;;;;;80.43;34.20;;;;;;;;;;761016;181;616583;-63
2021/03/02 12:48:41;;;;;;;72.80;30.47;;;;;;;;;;765404;183;628078;-68
2021/03/02 12:51:07;;;;;;;60.47;29.50;;;;;;;;;;761796;180;613355;-63
2021/03/02 12:53:33;;;;;;;52.70;26.87;;;;;;;;;;760551;180;624568;-63
2021/03/02 12:55:59;;;;;;;64.83;26.47;;;;;;;;;;764256;183;625469;-63
2021/03/02 12:58:25;;;;;;;47.50;23.97;;;;;;;;;;761149;182;631514;-66
2021/03/02 13:00:51;;;;;;;48.03;24.10;;;;;;;;;;763397;183;627291;-64
2021/03/02 13:03:17;;;;;;;40.17;22.17;;;;;;;;;;762049;181;629186;-63
2021/03/02 13:05:43;;;;;;;44.57;22.83;;;;;;;;;;758289;180;624276;-64
2021/03/02 13:08:09;;;;;;;40.27;20.17;;;;;;;;;;763809;181;629568;-65
2021/03/02 13:10:35;;;;;;;25.03;14.97;;;;;;;;;;759941;183;629989;-63
2021/03/02 13:13:01;;;;;;;34.03;16.40;;;;;;;;;;768907;183;617741;-63
2021/03/02 13:15:26;;;;;;;31.87;16.60;;;;;;;;;;763790;183;630699;-65
2021/03/02 13:17:52;;;;;;;34.77;19.77;;;;;;;;;;764944;183;624583;-64
2021/03/02 13:20:18;;;;;;;34.27;17.17;;;;;;;;;;769102;183;625603;-63
2021/03/02 13:22:44;;;;;;;37.40;18.17;;;;;;;;;;765542;183;624468;-64
2021/03/02 13:25:12;;;;;;;28.90;15.70;;;;;;;;;;766468;183;618307;-63
2021/03/02 13:27:36;;;;;;;25.93;16.30;;;;;;;;;;768648;183;608349;-63
2021/03/02 13:30:02;;;;;;;37.77;17.33;;;;;;;;;;763440;183;627869;-64
2021/03/02 13:32:30;;;;;;;31.53;14.80;;;;;;;;;;754937;183;630647;-64
2021/03/02 13:34:54;;;;;;;31.33;16.70;;;;;;;;;;760603;183;637451;-63
2021/03/02 13:37:20;;;;;;;34.27;17.40;;;;;;;;;;767876;183;627290;-63
2021/03/02 13:39:46;;;;;;;43.90;22.27;;;;;;;;;;768560;181;636554;-66
2021/03/02 13:42:12;;;;;;;32.30;17.83;;;;;;;;;;761192;183;632801;-64
2021/03/02 13:44:38;;;;;;;42.63;20.90;;;;;;;;;;770459;183;630951;-63
2021/03/02 13:47:04;;;;;;;37.20;19.87;;;;;;;;;;764037;183;615991;-64
2021/03/02 13:49:29;;;;;;;40.00;21.63;;;;;;;;;;767491;183;624752;-63